Time;durP1;ratioP1;P1;durP2;ratioP2;P2;SDS_P1;SDS_P2;PMS_P1;PMS_P2;Temp;Humidity;BMP_temperature;BMP_pressure;BME280_temperature;BME280_humidity;BME280_pressure;Samples;Min_cycle;Max_cycle;Signal;HPM_P1;HPM_P2
2022/06/19 00:00:18;;;;;;;;;;;11.90;99.90;;;;;;5094913;28;20007;-76
2022/06/19 00:02:44;;;;;;;;;;;12.00;99.90;;;;;;5094407;28;19948;-77
2022/06/19 00:05:10;;;;;;;;;;;11.80;99.90;;;;;;5095172;28;19908;-78
2022/06/19 00:07:36;;;;;;;;;;;11.80;99.90;;;;;;5094703;28;19908;-78
2022/06/19 00:10:02;;;;;;;;;;;11.70;99.90;;;;;;5094238;28;19915;-78
2022/06/19 00:12:28;;;;;;;;;;;11.70;99.90;;;;;;5095046;28;19974;-78
2022/06/19 00:14:53;;;;;;;;;;;11.70;99.90;;;;;;5093111;28;19908;-79
2022/06/19 00:17:19;;;;;;;;;;;11.70;99.90;;;;;;5093537;28;20415;-78
2022/06/19 00:19:45;;;;;;;;;;;11.70;99.90;;;;;;5094355;28;19912;-79
2022/06/19 00:22:10;;;;;;;;;;;11.70;99.90;;;;;;5094845;28;19908;-79
2022/06/19 00:24:36;;;;;;;;;;;11.70;99.90;;;;;;5095049;28;19912;-80
2022/06/19 00:27:02;;;;;;;;;;;11.70;99.90;;;;;;5093928;28;20273;-79
2022/06/19 00:29:28;;;;;;;;;;;11.70;99.90;;;;;;5094685;28;19912;-79
2022/06/19 00:31:54;;;;;;;;;;;11.70;99.90;;;;;;5093693;28;19994;-79
2022/06/19 00:34:20;;;;;;;;;;;11.70;99.90;;;;;;5094441;28;19924;-79
2022/06/19 00:36:49;;;;;;;;;;;11.60;99.90;;;;;;5093537;28;19916;-79
2022/06/19 00:39:16;;;;;;;;;;;11.70;99.90;;;;;;5094178;28;19934;-78
2022/06/19 00:41:41;;;;;;;;;;;11.60;99.90;;;;;;5094168;28;19997;-78
2022/06/19 00:44:08;;;;;;;;;;;11.70;99.90;;;;;;5094284;28;19908;-78
2022/06/19 00:46:54;;;;;;;;;;;11.70;99.90;;;;;;5094486;28;19908;-78
2022/06/19 00:49:23;;;;;;;;;;;11.60;99.90;;;;;;5093677;28;20273;-75
2022/06/19 00:51:53;;;;;;;;;;;11.60;99.90;;;;;;5093674;28;19908;-79
2022/06/19 00:54:20;;;;;;;;;;;11.60;99.90;;;;;;5094659;28;19912;-78
2022/06/19 00:56:46;;;;;;;;;;;11.60;99.90;;;;;;5093521;28;19997;-78
2022/06/19 00:59:12;;;;;;;;;;;11.50;99.90;;;;;;5094332;28;20292;-78
2022/06/19 01:01:39;;;;;;;;;;;11.50;99.90;;;;;;5092828;28;20386;-79
2022/06/19 01:04:20;;;;;;;;;;;11.60;99.90;;;;;;5093080;28;19915;-79
2022/06/19 01:06:48;;;;;;;;;;;11.60;99.90;;;;;;5093684;28;19908;-78
2022/06/19 01:09:14;;;;;;;;;;;11.60;99.90;;;;;;5094258;28;20003;-78
2022/06/19 01:11:39;;;;;;;;;;;11.70;99.90;;;;;;5093753;28;19944;-75
2022/06/19 01:14:07;;;;;;;;;;;11.70;99.90;;;;;;5094121;28;19908;-79
2022/06/19 01:16:33;;;;;;;;;;;11.80;99.90;;;;;;5094112;28;19913;-78
2022/06/19 01:18:59;;;;;;;;;;;11.80;99.90;;;;;;5092481;28;19912;-78
2022/06/19 01:21:37;;;;;;;;;;;11.70;99.90;;;;;;5093755;28;19915;-78
2022/06/19 01:24:21;;;;;;;;;;;11.70;99.90;;;;;;5093312;28;20377;-78
2022/06/19 01:26:49;;;;;;;;;;;11.70;99.90;;;;;;5093428;28;20011;-78
2022/06/19 01:29:15;;;;;;;;;;;11.60;99.90;;;;;;5094092;28;19951;-78
2022/06/19 01:31:49;;;;;;;;;;;11.60;99.90;;;;;;5093941;28;19909;-74
2022/06/19 01:34:28;;;;;;;;;;;11.60;99.90;;;;;;5092589;28;20043;-78
2022/06/19 01:37:07;;;;;;;;;;;11.60;99.90;;;;;;5093362;28;20353;-78
2022/06/19 01:39:38;;;;;;;;;;;11.60;99.90;;;;;;5092450;28;20369;-78
2022/06/19 01:42:05;;;;;;;;;;;11.70;99.90;;;;;;5093653;28;19908;-78
2022/06/19 01:44:31;;;;;;;;;;;11.70;99.90;;;;;;5093813;28;19908;-78
2022/06/19 01:46:57;;;;;;;;;;;11.70;99.90;;;;;;5093276;28;19912;-78
2022/06/19 01:49:23;;;;;;;;;;;11.70;99.90;;;;;;5093327;28;19947;-79
2022/06/19 01:51:51;;;;;;;;;;;11.60;99.90;;;;;;5093115;28;19974;-77
2022/06/19 01:54:22;;;;;;;;;;;11.60;99.90;;;;;;5093565;28;19912;-78
2022/06/19 01:56:49;;;;;;;;;;;11.60;99.90;;;;;;5092678;28;19912;-78
2022/06/19 01:59:15;;;;;;;;;;;11.60;99.90;;;;;;5093331;28;20003;-78
2022/06/19 02:01:41;;;;;;;;;;;11.60;99.90;;;;;;5093508;28;19952;-78
2022/06/19 02:04:07;;;;;;;;;;;11.60;99.90;;;;;;5092923;28;19912;-77
2022/06/19 02:06:53;;;;;;;;;;;11.70;99.90;;;;;;5093460;28;19914;-78
2022/06/19 02:09:21;;;;;;;;;;;11.70;99.90;;;;;;5093428;28;20273;-78
2022/06/19 02:11:47;;;;;;;;;;;11.70;99.90;;;;;;5091398;28;20388;-78
2022/06/19 02:14:13;;;;;;;;;;;11.60;99.90;;;;;;5093003;28;19908;-78
2022/06/19 02:16:40;;;;;;;;;;;11.60;99.90;;;;;;5093275;28;19919;-78
2022/06/19 02:19:06;;;;;;;;;;;11.50;99.90;;;;;;5092640;28;19908;-78
2022/06/19 02:21:36;;;;;;;;;;;11.50;99.90;;;;;;5093285;28;20003;-78
2022/06/19 02:24:02;;;;;;;;;;;11.60;99.90;;;;;;5092601;28;19908;-78
2022/06/19 02:26:29;;;;;;;;;;;11.60;99.90;;;;;;5093088;28;20001;-78
2022/06/19 02:28:54;;;;;;;;;;;11.60;99.90;;;;;;5092536;28;19999;-78
2022/06/19 02:31:20;;;;;;;;;;;11.60;99.90;;;;;;5093010;28;19946;-78
2022/06/19 02:33:49;;;;;;;;;;;11.60;99.90;;;;;;5096404;28;19920;-75
2022/06/19 02:36:33;;;;;;;;;;;11.60;99.90;;;;;;5093979;28;19951;-78
2022/06/19 02:39:00;;;;;;;;;;;11.60;99.90;;;;;;5092538;28;19935;-78
2022/06/19 02:41:30;;;;;;;;;;;11.70;99.90;;;;;;5092705;28;20349;-77
2022/06/19 02:43:56;;;;;;;;;;;11.70;99.90;;;;;;5092360;28;19908;-78
2022/06/19 02:46:21;;;;;;;;;;;11.80;99.90;;;;;;5092827;28;19908;-78
2022/06/19 02:48:47;;;;;;;;;;;11.90;99.90;;;;;;5092569;28;19916;-74
2022/06/19 02:51:13;;;;;;;;;;;11.90;99.90;;;;;;5093255;28;19914;-78
2022/06/19 02:53:38;;;;;;;;;;;12.00;99.90;;;;;;5092857;28;19915;-78
2022/06/19 02:56:04;;;;;;;;;;;12.00;99.90;;;;;;5092284;28;19915;-78
2022/06/19 02:58:29;;;;;;;;;;;12.00;99.90;;;;;;5092569;28;19912;-78
2022/06/19 03:00:55;;;;;;;;;;;12.00;99.90;;;;;;5092310;28;20415;-77
2022/06/19 03:03:20;;;;;;;;;;;11.90;99.90;;;;;;5092823;28;19908;-78
2022/06/19 03:05:46;;;;;;;;;;;11.90;99.90;;;;;;5092776;28;19912;-78
2022/06/19 03:08:11;;;;;;;;;;;11.90;99.90;;;;;;5092205;28;19912;-78
2022/06/19 03:10:37;;;;;;;;;;;11.90;99.90;;;;;;5092904;28;19908;-78
2022/06/19 03:13:03;;;;;;;;;;;11.90;99.90;;;;;;5091781;28;20365;-78
2022/06/19 03:15:28;;;;;;;;;;;12.00;99.90;;;;;;5092359;28;19915;-78
2022/06/19 03:17:54;;;;;;;;;;;12.00;99.90;;;;;;5092126;28;19912;-78
2022/06/19 03:20:21;;;;;;;;;;;12.00;99.90;;;;;;5096993;28;19971;-78
2022/06/19 03:22:47;;;;;;;;;;;12.00;99.90;;;;;;5097995;28;20351;-78
2022/06/19 03:25:13;;;;;;;;;;;12.00;99.90;;;;;;5093110;28;19908;-77
2022/06/19 03:27:39;;;;;;;;;;;11.90;99.90;;;;;;5094813;28;19908;-77
2022/06/19 03:30:05;;;;;;;;;;;11.80;99.90;;;;;;5095611;28;19908;-77
2022/06/19 03:32:30;;;;;;;;;;;11.80;99.90;;;;;;5096435;28;19947;-77
2022/06/19 03:34:56;;;;;;;;;;;11.80;99.90;;;;;;5094327;28;19978;-77
2022/06/19 03:37:22;;;;;;;;;;;11.80;99.90;;;;;;5096279;28;19959;-77
2022/06/19 03:39:47;;;;;;;;;;;11.90;99.90;;;;;;5096204;28;19913;-77
2022/06/19 03:42:14;;;;;;;;;;;11.90;99.90;;;;;;5095324;28;19908;-77
2022/06/19 03:44:39;;;;;;;;;;;11.90;99.90;;;;;;5096128;28;19908;-77
2022/06/19 03:47:05;;;;;;;;;;;11.90;99.90;;;;;;5094274;28;19953;-78
2022/06/19 03:49:31;;;;;;;;;;;11.90;99.90;;;;;;5094850;28;19916;-78
2022/06/19 03:51:56;;;;;;;;;;;12.00;99.90;;;;;;5095504;28;20311;-77
2022/06/19 03:54:22;;;;;;;;;;;11.90;99.90;;;;;;5095740;28;19922;-77
2022/06/19 03:56:48;;;;;;;;;;;12.00;99.90;;;;;;5095754;28;19912;-77
2022/06/19 03:59:13;;;;;;;;;;;12.00;99.90;;;;;;5094070;28;19947;-77
2022/06/19 04:01:40;;;;;;;;;;;12.00;99.90;;;;;;5095768;28;19915;-77
2022/06/19 04:04:06;;;;;;;;;;;12.00;99.90;;;;;;5095258;28;19977;-77
2022/06/19 04:06:34;;;;;;;;;;;12.00;99.90;;;;;;5095756;28;20032;-77
2022/06/19 04:09:00;;;;;;;;;;;12.10;99.90;;;;;;5095600;28;19951;-77
2022/06/19 04:11:26;;;;;;;;;;;12.10;99.90;;;;;;5101272;28;19908;-78
2022/06/19 04:13:53;;;;;;;;;;;12.10;99.90;;;;;;5096921;28;19942;-75
2022/06/19 04:16:21;;;;;;;;;;;12.10;99.90;;;;;;5095237;28;20345;-78
2022/06/19 04:18:47;;;;;;;;;;;12.10;99.90;;;;;;5095347;28;19922;-77
2022/06/19 04:21:15;;;;;;;;;;;12.10;99.90;;;;;;5094943;28;20092;-77
2022/06/19 04:23:41;;;;;;;;;;;12.10;99.90;;;;;;5095173;28;19909;-77
2022/06/19 04:26:08;;;;;;;;;;;12.00;99.90;;;;;;5094748;28;20354;-78
2022/06/19 04:28:33;;;;;;;;;;;12.10;99.90;;;;;;5095225;28;19908;-77
2022/06/19 04:30:59;;;;;;;;;;;12.00;99.90;;;;;;5094674;28;20323;-77
2022/06/19 04:33:24;;;;;;;;;;;12.10;99.90;;;;;;5095375;28;19946;-78
2022/06/19 04:35:50;;;;;;;;;;;12.10;99.90;;;;;;5094903;28;19946;-78
2022/06/19 04:38:16;;;;;;;;;;;12.10;99.90;;;;;;5094446;28;19929;-77
2022/06/19 04:40:41;;;;;;;;;;;12.20;99.90;;;;;;5095242;28;19914;-77
2022/06/19 04:43:08;;;;;;;;;;;12.20;99.90;;;;;;5094517;28;19981;-77
2022/06/19 04:45:34;;;;;;;;;;;12.20;99.90;;;;;;5095054;28;20019;-78
2022/06/19 04:48:00;;;;;;;;;;;12.20;99.90;;;;;;5094439;28;20373;-76
2022/06/19 04:50:25;;;;;;;;;;;12.20;99.90;;;;;;5094647;28;19908;-77
2022/06/19 04:52:51;;;;;;;;;;;12.20;99.90;;;;;;5094774;28;20021;-77
2022/06/19 04:55:17;;;;;;;;;;;12.20;99.90;;;;;;5094125;28;20750;-77
2022/06/19 04:57:42;;;;;;;;;;;12.10;99.90;;;;;;5094600;28;19919;-78
2022/06/19 05:00:10;;;;;;;;;;;12.10;99.90;;;;;;5096701;28;19913;-77
2022/06/19 05:02:36;;;;;;;;;;;12.20;99.90;;;;;;5097816;28;19915;-78
2022/06/19 05:05:02;;;;;;;;;;;12.10;99.90;;;;;;5094053;28;19912;-77
2022/06/19 05:07:28;;;;;;;;;;;12.20;99.90;;;;;;5094916;28;20003;-78
2022/06/19 05:09:53;;;;;;;;;;;12.20;99.90;;;;;;5094557;28;19939;-77
2022/06/19 05:12:19;;;;;;;;;;;12.20;99.90;;;;;;5093749;28;19912;-77
2022/06/19 05:14:44;;;;;;;;;;;12.30;99.90;;;;;;5094443;28;19908;-77
2022/06/19 05:17:10;;;;;;;;;;;12.30;99.90;;;;;;5093674;28;19916;-78
2022/06/19 05:19:39;;;;;;;;;;;12.30;99.90;;;;;;5094058;28;19966;-77
2022/06/19 05:22:04;;;;;;;;;;;12.30;99.90;;;;;;5092446;28;20376;-77
2022/06/19 05:24:30;;;;;;;;;;;12.40;99.90;;;;;;5094260;28;19908;-77
2022/06/19 05:26:55;;;;;;;;;;;12.40;99.90;;;;;;5094276;28;20399;-77
2022/06/19 05:29:21;;;;;;;;;;;12.40;99.90;;;;;;5093579;28;19951;-77
2022/06/19 05:31:46;;;;;;;;;;;12.40;99.90;;;;;;5093454;28;19919;-77
2022/06/19 05:34:12;;;;;;;;;;;12.40;99.90;;;;;;5092816;28;20408;-77
2022/06/19 05:36:38;;;;;;;;;;;12.50;99.90;;;;;;5093959;28;19951;-78
2022/06/19 05:39:04;;;;;;;;;;;12.60;99.90;;;;;;5093353;28;20269;-77
2022/06/19 05:41:30;;;;;;;;;;;12.70;99.90;;;;;;5093937;28;20004;-77
2022/06/19 05:43:55;;;;;;;;;;;12.80;99.90;;;;;;5092607;28;20372;-78
2022/06/19 05:46:21;;;;;;;;;;;12.90;99.90;;;;;;5093144;28;19961;-77
2022/06/19 05:48:48;;;;;;;;;;;12.90;99.90;;;;;;5092795;28;20002;-77
2022/06/19 05:51:15;;;;;;;;;;;12.90;99.90;;;;;;5093118;28;19989;-78
2022/06/19 05:53:42;;;;;;;;;;;13.00;99.90;;;;;;5093964;28;20030;-78
2022/06/19 05:56:07;;;;;;;;;;;13.00;99.90;;;;;;5093067;28;19919;-77
2022/06/19 05:58:33;;;;;;;;;;;13.00;99.90;;;;;;5092481;28;19912;-77
2022/06/19 06:00:59;;;;;;;;;;;13.10;99.90;;;;;;5093338;28;19916;-76
2022/06/19 06:03:25;;;;;;;;;;;13.00;99.90;;;;;;5092927;28;19909;-78
2022/06/19 06:05:51;;;;;;;;;;;13.00;99.90;;;;;;5093347;28;19987;-79
2022/06/19 06:08:16;;;;;;;;;;;13.00;99.90;;;;;;5091746;28;19908;-78
2022/06/19 06:10:42;;;;;;;;;;;13.00;99.90;;;;;;5093460;28;19999;-78
2022/06/19 06:13:08;;;;;;;;;;;13.00;99.90;;;;;;5092733;28;19914;-78
2022/06/19 06:15:33;;;;;;;;;;;13.00;99.90;;;;;;5093775;28;20002;-78
2022/06/19 06:18:00;;;;;;;;;;;13.00;99.90;;;;;;5092879;28;19916;-78
2022/06/19 06:20:26;;;;;;;;;;;13.00;99.90;;;;;;5092874;28;20408;-78
2022/06/19 06:22:52;;;;;;;;;;;13.00;99.90;;;;;;5093328;28;19909;-78
2022/06/19 06:25:18;;;;;;;;;;;13.10;99.90;;;;;;5092701;28;19909;-78
2022/06/19 06:27:44;;;;;;;;;;;13.20;99.90;;;;;;5093139;28;19958;-78
2022/06/19 06:30:10;;;;;;;;;;;13.20;99.90;;;;;;5092454;28;20264;-78
2022/06/19 06:32:36;;;;;;;;;;;13.20;99.90;;;;;;5093196;28;19916;-78
2022/06/19 06:35:02;;;;;;;;;;;13.30;99.90;;;;;;5092961;28;19920;-74
2022/06/19 06:37:27;;;;;;;;;;;13.40;99.90;;;;;;5092907;28;19919;-79
2022/06/19 06:39:53;;;;;;;;;;;13.40;99.90;;;;;;5092908;28;19913;-79
2022/06/19 06:42:19;;;;;;;;;;;13.50;99.90;;;;;;5092425;28;19934;-78
2022/06/19 06:44:44;;;;;;;;;;;13.60;99.90;;;;;;5093038;28;19915;-78
2022/06/19 06:47:10;;;;;;;;;;;13.60;99.90;;;;;;5092492;28;19908;-78
2022/06/19 06:49:35;;;;;;;;;;;13.60;99.90;;;;;;5092672;28;19908;-78
2022/06/19 06:52:01;;;;;;;;;;;13.50;99.90;;;;;;5092578;28;19995;-79
2022/06/19 06:54:26;;;;;;;;;;;13.50;99.90;;;;;;5092329;28;19919;-79
2022/06/19 06:56:54;;;;;;;;;;;13.50;99.90;;;;;;5094730;28;20379;-78
2022/06/19 06:59:19;;;;;;;;;;;13.50;99.90;;;;;;5093828;28;20280;-78
2022/06/19 07:01:45;;;;;;;;;;;13.50;99.90;;;;;;5097002;28;19915;-78
2022/06/19 07:04:11;;;;;;;;;;;13.60;99.90;;;;;;5095012;28;20262;-78
2022/06/19 07:06:36;;;;;;;;;;;13.60;99.90;;;;;;5096939;28;19912;-78
2022/06/19 07:09:04;;;;;;;;;;;13.50;99.90;;;;;;5096625;28;19908;-78
2022/06/19 07:11:38;;;;;;;;;;;13.60;99.90;;;;;;5096391;28;19915;-78
2022/06/19 07:14:04;;;;;;;;;;;13.60;99.90;;;;;;5096786;28;20341;-77
2022/06/19 07:16:30;;;;;;;;;;;13.60;99.90;;;;;;5096410;28;19923;-78
2022/06/19 07:18:56;;;;;;;;;;;13.60;99.90;;;;;;5095252;28;19912;-78
2022/06/19 07:21:21;;;;;;;;;;;13.70;99.90;;;;;;5095726;28;19916;-78
2022/06/19 07:23:47;;;;;;;;;;;13.70;99.90;;;;;;5096396;28;19912;-79
2022/06/19 07:26:14;;;;;;;;;;;13.80;99.90;;;;;;5095925;28;19981;-80
2022/06/19 07:28:40;;;;;;;;;;;13.80;99.90;;;;;;5096467;28;20276;-80
2022/06/19 07:31:06;;;;;;;;;;;13.90;99.90;;;;;;5096241;28;19908;-75
2022/06/19 07:33:33;;;;;;;;;;;13.90;99.90;;;;;;5096083;28;19995;-78
2022/06/19 07:35:58;;;;;;;;;;;13.90;99.90;;;;;;5096002;28;20365;-78
2022/06/19 07:38:24;;;;;;;;;;;14.00;99.90;;;;;;5095832;28;19923;-77
2022/06/19 07:40:49;;;;;;;;;;;14.00;99.90;;;;;;5096239;28;19908;-78
2022/06/19 07:43:15;;;;;;;;;;;14.10;99.90;;;;;;5095835;28;19908;-79
2022/06/19 07:45:41;;;;;;;;;;;14.10;99.90;;;;;;5095896;28;19908;-79
2022/06/19 07:50:57;;;;;;;;;;;14.00;99.90;;;;;;5076372;28;19915;-79
2022/06/19 07:53:23;;;;;;;;;;;14.00;99.90;;;;;;5095487;28;19912;-79
2022/06/19 07:55:49;;;;;;;;;;;14.00;99.90;;;;;;5096069;28;20297;-79
2022/06/19 07:58:14;;;;;;;;;;;14.10;99.90;;;;;;5093927;28;19961;-78
2022/06/19 08:00:40;;;;;;;;;;;14.00;99.90;;;;;;5096499;28;19912;-80
2022/06/19 08:03:06;;;;;;;;;;;14.10;99.90;;;;;;5099325;28;19908;-79
2022/06/19 08:05:33;;;;;;;;;;;14.30;99.90;;;;;;5103273;28;19916;-78
2022/06/19 08:07:59;;;;;;;;;;;14.30;99.90;;;;;;5099110;28;20268;-79
2022/06/19 08:10:26;;;;;;;;;;;14.40;99.90;;;;;;5096429;28;19915;-78
2022/06/19 08:12:52;;;;;;;;;;;14.50;99.90;;;;;;5095011;28;19915;-78
2022/06/19 08:15:17;;;;;;;;;;;14.60;99.90;;;;;;5095102;28;19909;-77
2022/06/19 08:17:43;;;;;;;;;;;14.70;99.90;;;;;;5095462;28;19916;-78
2022/06/19 08:20:10;;;;;;;;;;;14.70;99.90;;;;;;5095346;28;19912;-75
2022/06/19 08:22:37;;;;;;;;;;;14.80;99.90;;;;;;5094961;28;19908;-80
2022/06/19 08:25:03;;;;;;;;;;;14.80;99.90;;;;;;5095300;28;19908;-79
2022/06/19 08:27:29;;;;;;;;;;;14.90;99.90;;;;;;5094776;28;19913;-79
2022/06/19 08:29:55;;;;;;;;;;;15.00;99.90;;;;;;5095329;28;19915;-79
2022/06/19 08:32:20;;;;;;;;;;;15.00;99.90;;;;;;5094286;28;19987;-79
2022/06/19 08:34:46;;;;;;;;;;;15.00;99.90;;;;;;5094808;28;19927;-79
2022/06/19 08:37:12;;;;;;;;;;;15.10;99.90;;;;;;5094422;28;19912;-75
2022/06/19 08:39:38;;;;;;;;;;;15.00;99.90;;;;;;5095306;28;19919;-79
2022/06/19 08:42:12;;;;;;;;;;;15.00;99.90;;;;;;5094952;28;20341;-80
2022/06/19 08:44:56;;;;;;;;;;;15.00;99.90;;;;;;5094810;28;19919;-80
2022/06/19 08:47:21;;;;;;;;;;;15.00;99.90;;;;;;5094353;28;19912;-79
2022/06/19 08:49:50;;;;;;;;;;;15.10;99.90;;;;;;5094862;28;19935;-80
2022/06/19 08:52:21;;;;;;;;;;;15.10;99.90;;;;;;5093488;28;19908;-79
2022/06/19 08:55:01;;;;;;;;;;;15.10;99.90;;;;;;5094113;28;19919;-79
2022/06/19 08:57:46;;;;;;;;;;;15.10;99.90;;;;;;5092868;28;20253;-78
2022/06/19 09:00:16;;;;;;;;;;;15.00;99.90;;;;;;5094447;28;19973;-78
2022/06/19 09:02:41;;;;;;;;;;;15.00;99.90;;;;;;5094723;28;20002;-78
2022/06/19 09:07:57;;;;;;;;;;;14.90;99.90;;;;;;5094197;28;19931;-78
2022/06/19 09:10:41;;;;;;;;;;;14.70;99.90;;;;;;5093950;28;19908;-78
2022/06/19 09:13:45;;;;;;;;;;;14.70;99.90;;;;;;5094389;28;19920;-77
2022/06/19 09:16:18;;;;;;;;;;;15.00;99.90;;;;;;5071578;28;19916;-80
2022/06/19 09:18:46;;;;;;;;;;;15.40;99.90;;;;;;5071693;28;19913;-80
2022/06/19 09:21:11;;;;;;;;;;;15.80;99.90;;;;;;5083451;28;19908;-79
2022/06/19 09:23:55;;;;;;;;;;;16.10;99.90;;;;;;5092625;28;19931;-81
2022/06/19 09:26:36;;;;;;;;;;;16.30;99.90;;;;;;5093702;28;19908;-80
2022/06/19 09:29:05;;;;;;;;;;;16.40;99.90;;;;;;5094220;28;20346;-79
2022/06/19 09:31:30;;;;;;;;;;;16.40;99.90;;;;;;5093505;28;19952;-80
2022/06/19 09:33:59;;;;;;;;;;;16.40;99.90;;;;;;5094171;28;20010;-80
2022/06/19 09:36:28;;;;;;;;;;;16.40;99.90;;;;;;5093321;28;19937;-80
2022/06/19 09:38:59;;;;;;;;;;;16.40;99.90;;;;;;5093585;28;19919;-80
2022/06/19 09:41:34;;;;;;;;;;;16.40;99.90;;;;;;5093374;28;20242;-80
2022/06/19 09:44:07;;;;;;;;;;;16.30;99.90;;;;;;5093944;28;19908;-79
2022/06/19 09:46:33;;;;;;;;;;;16.30;99.90;;;;;;5093353;28;19915;-79
2022/06/19 09:49:21;;;;;;;;;;;16.10;99.90;;;;;;5093801;28;19908;-79
2022/06/19 09:51:50;;;;;;;;;;;16.00;99.90;;;;;;5093658;28;20280;-79
2022/06/19 09:54:24;;;;;;;;;;;15.90;99.90;;;;;;5093441;28;19915;-76
2022/06/19 09:56:54;;;;;;;;;;;15.80;99.90;;;;;;5093300;28;20380;-79
2022/06/19 09:59:20;;;;;;;;;;;15.70;99.90;;;;;;5093159;28;19920;-79
2022/06/19 10:01:47;;;;;;;;;;;15.60;99.90;;;;;;5093572;28;19908;-79
2022/06/19 10:04:40;;;;;;;;;;;15.60;99.90;;;;;;5093851;28;19957;-79
2022/06/19 10:07:10;;;;;;;;;;;15.60;99.90;;;;;;5091921;28;19908;-79
2022/06/19 10:09:39;;;;;;;;;;;15.60;99.90;;;;;;5092919;28;19908;-78
2022/06/19 10:12:08;;;;;;;;;;;15.60;99.90;;;;;;5093364;28;19947;-79
2022/06/19 10:14:38;;;;;;;;;;;15.60;99.90;;;;;;5092574;28;19999;-79
2022/06/19 10:17:12;;;;;;;;;;;15.60;99.90;;;;;;5093470;28;19911;-79
2022/06/19 10:19:41;;;;;;;;;;;15.50;99.90;;;;;;5093103;28;19923;-78
2022/06/19 10:22:16;;;;;;;;;;;15.50;99.90;;;;;;5093654;28;19920;-78
2022/06/19 10:25:00;;;;;;;;;;;15.50;99.90;;;;;;5092345;28;19913;-78
2022/06/19 10:27:44;;;;;;;;;;;15.40;99.90;;;;;;5082307;28;20007;-78
2022/06/19 10:30:22;;;;;;;;;;;15.50;99.90;;;;;;5072769;28;19909;-79
2022/06/19 10:33:06;;;;;;;;;;;15.80;99.90;;;;;;5072921;28;19913;-78
2022/06/19 10:35:37;;;;;;;;;;;16.00;99.90;;;;;;5072210;28;19908;-79
2022/06/19 10:38:22;;;;;;;;;;;16.20;99.90;;;;;;5072741;28;19919;-79
2022/06/19 10:40:52;;;;;;;;;;;16.40;99.90;;;;;;5072906;28;19913;-78
2022/06/19 10:43:24;;;;;;;;;;;16.60;99.90;;;;;;5072600;28;20301;-79
2022/06/19 10:45:51;;;;;;;;;;;16.60;99.90;;;;;;5072820;28;19915;-80
2022/06/19 10:48:25;;;;;;;;;;;16.50;99.90;;;;;;5073072;28;19912;-80
2022/06/19 10:50:51;;;;;;;;;;;16.50;99.90;;;;;;5073105;28;19935;-79
2022/06/19 10:53:30;;;;;;;;;;;16.50;99.90;;;;;;5072696;28;19918;-77
2022/06/19 10:55:58;;;;;;;;;;;16.40;99.90;;;;;;5072408;28;19909;-78
2022/06/19 10:58:28;;;;;;;;;;;16.30;99.90;;;;;;5071915;28;20372;-78
2022/06/19 11:01:04;;;;;;;;;;;16.20;99.90;;;;;;5072945;28;20318;-80
2022/06/19 11:06:16;;;;;;;;;;;16.10;99.90;;;;;;5072359;28;20054;-78
2022/06/19 11:08:44;;;;;;;;;;;15.80;99.90;;;;;;5071872;28;19982;-79
2022/06/19 11:11:14;;;;;;;;;;;15.70;99.90;;;;;;5071389;28;20288;-79
2022/06/19 11:13:55;;;;;;;;;;;15.60;99.90;;;;;;5071928;28;19951;-79
2022/06/19 11:16:21;;;;;;;;;;;15.60;99.90;;;;;;5072402;28;19916;-79
2022/06/19 11:18:48;;;;;;;;;;;15.60;99.90;;;;;;5070654;28;20280;-78
2022/06/19 11:21:17;;;;;;;;;;;15.60;99.90;;;;;;5072167;28;19909;-78
2022/06/19 11:23:49;;;;;;;;;;;15.80;99.90;;;;;;5071400;28;19911;-78
2022/06/19 11:26:16;;;;;;;;;;;16.00;99.90;;;;;;5072648;28;19908;-79
2022/06/19 11:28:48;;;;;;;;;;;16.30;99.90;;;;;;5072047;28;19913;-79
2022/06/19 11:31:19;;;;;;;;;;;16.50;99.90;;;;;;5075182;28;20354;-78
2022/06/19 11:33:46;;;;;;;;;;;16.70;99.90;;;;;;5072134;28;20378;-79
2022/06/19 11:36:27;;;;;;;;;;;16.60;99.90;;;;;;5071608;28;19909;-80
2022/06/19 11:38:54;;;;;;;;;;;16.60;99.90;;;;;;5071418;28;19921;-78
2022/06/19 11:41:29;;;;;;;;;;;16.70;99.90;;;;;;5071527;28;19914;-78
2022/06/19 11:44:03;;;;;;;;;;;16.80;99.90;;;;;;5071539;28;19908;-78
2022/06/19 11:46:30;;;;;;;;;;;16.80;99.90;;;;;;5072192;28;19931;-79
2022/06/19 11:49:15;;;;;;;;;;;17.10;99.90;;;;;;5075090;28;19909;-78
2022/06/19 11:51:43;;;;;;;;;;;17.30;99.90;;;;;;5074716;28;19909;-78
2022/06/19 11:54:11;;;;;;;;;;;17.30;99.90;;;;;;5075201;28;19953;-80
2022/06/19 11:56:38;;;;;;;;;;;17.40;99.90;;;;;;5074293;28;19916;-80
2022/06/19 11:59:05;;;;;;;;;;;17.50;99.90;;;;;;5074765;28;20349;-81
2022/06/19 12:01:38;;;;;;;;;;;17.50;99.90;;;;;;5074217;28;19954;-77
2022/06/19 12:04:06;;;;;;;;;;;17.40;99.90;;;;;;5074867;28;19913;-78
2022/06/19 12:06:50;;;;;;;;;;;17.30;99.90;;;;;;5106941;28;19915;-79
2022/06/19 12:09:24;;;;;;;;;;;17.30;99.90;;;;;;5074375;28;19950;-78
2022/06/19 12:12:01;;;;;;;;;;;17.10;99.90;;;;;;5074580;28;19909;-78
2022/06/19 12:14:31;;;;;;;;;;;17.00;99.90;;;;;;5089652;28;19971;-77
2022/06/19 12:17:20;;;;;;;;;;;17.00;99.90;;;;;;5074452;28;19925;-78
2022/06/19 12:19:52;;;;;;;;;;;17.00;99.90;;;;;;5067077;28;20120;-79
2022/06/19 12:22:19;;;;;;;;;;;17.10;99.90;;;;;;5074287;28;19913;-78
2022/06/19 12:24:49;;;;;;;;;;;17.20;99.90;;;;;;5073934;28;19905;-78
2022/06/19 12:27:17;;;;;;;;;;;17.30;99.90;;;;;;5074441;28;19908;-79
2022/06/19 12:29:46;;;;;;;;;;;17.30;99.90;;;;;;5073757;28;19909;-79
2022/06/19 12:32:32;;;;;;;;;;;17.20;99.90;;;;;;5074285;28;19986;-78
2022/06/19 12:34:59;;;;;;;;;;;17.30;99.90;;;;;;5072941;28;20297;-79
2022/06/19 12:37:27;;;;;;;;;;;17.10;99.90;;;;;;5073385;28;19912;-77
2022/06/19 12:39:54;;;;;;;;;;;17.10;99.90;;;;;;5072835;28;19912;-77
2022/06/19 12:42:32;;;;;;;;;;;17.00;99.90;;;;;;5074040;28;19909;-78
2022/06/19 12:45:07;;;;;;;;;;;17.00;99.90;;;;;;5074119;28;19912;-79
2022/06/19 12:47:32;;;;;;;;;;;17.00;99.90;;;;;;5072869;28;19928;-79
2022/06/19 12:50:00;;;;;;;;;;;17.10;99.90;;;;;;5073522;28;19991;-79
2022/06/19 12:52:26;;;;;;;;;;;17.40;99.90;;;;;;5072968;28;20388;-76
2022/06/19 12:54:58;;;;;;;;;;;17.60;99.90;;;;;;5072337;28;20023;-78
2022/06/19 12:57:56;;;;;;;;;;;17.60;99.90;;;;;;5073142;28;19912;-77
2022/06/19 13:00:21;;;;;;;;;;;17.80;99.90;;;;;;5061265;28;19920;-79
2022/06/19 13:03:10;;;;;;;;;;;18.00;99.90;;;;;;5073079;28;19916;-78
2022/06/19 13:05:36;;;;;;;;;;;17.90;99.90;;;;;;5073016;28;19909;-80
2022/06/19 13:08:10;;;;;;;;;;;18.20;99.90;;;;;;5073047;28;20003;-78
2022/06/19 13:10:39;;;;;;;;;;;18.30;99.90;;;;;;5073245;28;19909;-79
2022/06/19 13:13:30;;;;;;;;;;;18.30;99.90;;;;;;5073827;28;19915;-79
2022/06/19 13:15:57;;;;;;;;;;;18.20;99.90;;;;;;5073998;28;19909;-79
2022/06/19 13:18:22;;;;;;;;;;;17.90;99.90;;;;;;5074010;28;20370;-79
2022/06/19 13:20:51;;;;;;;;;;;17.80;99.90;;;;;;5073368;28;19923;-79
2022/06/19 13:23:19;;;;;;;;;;;17.60;99.90;;;;;;5073844;28;19909;-79
2022/06/19 13:26:03;;;;;;;;;;;17.60;99.90;;;;;;5073058;28;20003;-80
2022/06/19 13:28:39;;;;;;;;;;;17.60;99.90;;;;;;5073290;28;20353;-77
2022/06/19 13:31:23;;;;;;;;;;;17.50;99.90;;;;;;5073715;28;19914;-80
2022/06/19 13:33:49;;;;;;;;;;;17.60;99.90;;;;;;5072791;28;20413;-81
2022/06/19 13:36:29;;;;;;;;;;;17.50;99.90;;;;;;5073930;28;19919;-81
2022/06/19 13:39:18;;;;;;;;;;;17.50;99.90;;;;;;5073344;28;19912;-81
2022/06/19 13:41:45;;;;;;;;;;;17.60;99.90;;;;;;5069631;28;19957;-79
2022/06/19 13:44:10;;;;;;;;;;;17.90;99.90;;;;;;5073469;28;20273;-81
2022/06/19 13:46:51;;;;;;;;;;;17.90;99.90;;;;;;5072956;28;19915;-81
2022/06/19 13:49:21;;;;;;;;;;;17.90;99.90;;;;;;5073249;28;19919;-81
2022/06/19 13:52:05;;;;;;;;;;;17.90;99.90;;;;;;5072819;28;19912;-81
2022/06/19 13:54:51;;;;;;;;;;;17.80;99.90;;;;;;5072944;28;20008;-76
2022/06/19 13:57:43;;;;;;;;;;;17.90;99.90;;;;;;5076013;28;19913;-81
2022/06/19 14:00:16;;;;;;;;;;;17.90;99.90;;;;;;5072804;28;20001;-81
2022/06/19 14:02:54;;;;;;;;;;;17.90;99.90;;;;;;5072828;28;19914;-80
2022/06/19 14:05:39;;;;;;;;;;;17.90;99.90;;;;;;5073213;28;20408;-80
2022/06/19 14:08:22;;;;;;;;;;;17.80;99.90;;;;;;5073410;28;19908;-81
2022/06/19 14:10:58;;;;;;;;;;;17.70;99.90;;;;;;5072233;28;19912;-81
2022/06/19 14:13:32;;;;;;;;;;;17.80;99.90;;;;;;5073178;28;19962;-79
2022/06/19 14:16:12;;;;;;;;;;;17.90;99.90;;;;;;5073044;28;19909;-80
2022/06/19 14:18:37;;;;;;;;;;;17.90;99.90;;;;;;5072524;28;19924;-79
2022/06/19 14:21:12;;;;;;;;;;;18.00;99.90;;;;;;5072994;28;20257;-80
2022/06/19 14:23:43;;;;;;;;;;;18.00;99.90;;;;;;5072459;28;19970;-79
2022/06/19 14:26:09;;;;;;;;;;;18.00;99.90;;;;;;5073458;28;19909;-79
2022/06/19 14:29:04;;;;;;;;;;;18.00;99.90;;;;;;5072332;28;19914;-79
2022/06/19 14:31:30;;;;;;;;;;;17.90;99.90;;;;;;5052661;28;19991;-79
2022/06/19 14:33:55;;;;;;;;;;;17.90;99.90;;;;;;5071762;28;20006;-80
2022/06/19 14:36:22;;;;;;;;;;;18.00;99.90;;;;;;5072323;28;19917;-78